Time;durP1;ratioP1;P1;durP2;ratioP2;P2;SDS_P1;SDS_P2;PMS_P1;PMS_P2;Temp;Humidity;BMP_temperature;BMP_pressure;BME280_temperature;BME280_humidity;BME280_pressure;Samples;Min_cycle;Max_cycle;Signal;HPM_P1;HPM_P2
2023/06/10 00:02:27;;;;;;;11.00;7.80;;;;;;;19.44;67.81;99546.30;105883;1254;68799;-70
2023/06/10 00:04:55;;;;;;;8.90;8.00;;;;;;;19.36;67.48;99546.42;105646;1254;72667;-73
2023/06/10 00:07:22;;;;;;;9.70;7.80;;;;;;;19.25;67.64;99549.31;105664;1259;60501;-73
2023/06/10 00:09:51;;;;;;;10.70;8.10;;;;;;;19.14;67.98;99547.32;105734;1254;60440;-74
2023/06/10 00:12:20;;;;;;;11.10;7.80;;;;;;;19.05;68.71;99546.66;105721;1254;74138;-73
2023/06/10 00:14:51;;;;;;;9.90;8.00;;;;;;;18.99;68.96;99545.09;105829;1257;70163;-72
2023/06/10 00:17:18;;;;;;;10.20;8.80;;;;;;;18.96;69.07;99545.43;105665;1254;72710;-72
2023/06/10 00:19:46;;;;;;;10.00;8.40;;;;;;;18.93;69.51;99542.02;105872;1254;60625;-73
2023/06/10 00:22:14;;;;;;;9.30;7.70;;;;;;;18.89;69.57;99545.02;105414;1253;60571;-72
2023/06/10 00:24:42;;;;;;;8.70;7.80;;;;;;;18.85;69.29;99543.61;105760;1259;74768;-68
2023/06/10 00:27:10;;;;;;;9.10;7.20;;;;;;;18.84;69.15;99545.73;105575;1259;70618;-72
2023/06/10 00:29:38;;;;;;;12.50;7.60;;;;;;;18.91;68.99;99544.11;105864;1254;70427;-71
2023/06/10 00:32:06;;;;;;;10.00;7.80;;;;;;;18.98;68.99;99545.02;105339;1254;60450;-71
2023/06/10 00:34:35;;;;;;;11.40;8.10;;;;;;;18.97;69.61;99540.40;105870;1257;60347;-73
2023/06/10 00:37:03;;;;;;;8.10;7.30;;;;;;;18.95;69.79;99542.54;105766;1257;73880;-71
2023/06/10 00:39:30;;;;;;;9.50;8.60;;;;;;;18.93;70.26;99540.81;105487;1254;72514;-74
2023/06/10 00:41:58;;;;;;;10.30;7.80;;;;;;;18.94;70.43;99541.98;105547;1253;72865;-73
2023/06/10 00:44:26;;;;;;;11.20;9.00;;;;;;;18.92;70.78;99539.45;105536;1259;60432;-73
2023/06/10 00:46:55;;;;;;;10.60;9.20;;;;;;;18.91;70.93;99535.77;105678;1254;60599;-72
2023/06/10 00:49:23;;;;;;;10.40;8.20;;;;;;;18.88;71.33;99530.98;105806;1254;73885;-72
2023/06/10 00:51:51;;;;;;;8.90;8.00;;;;;;;18.98;71.26;99532.23;105758;1256;69212;-74
2023/06/10 00:54:19;;;;;;;8.40;7.60;;;;;;;19.04;71.02;99530.10;105755;1258;71259;-72
2023/06/10 00:56:47;;;;;;;9.60;8.60;;;;;;;19.05;71.09;99530.71;105586;1254;60513;-72
2023/06/10 00:59:14;;;;;;;9.70;8.00;;;;;;;19.03;71.03;99527.55;105552;1254;60348;-71
2023/06/10 01:01:43;;;;;;;10.30;8.90;;;;;;;19.01;71.07;99529.64;105554;1254;72620;-73
2023/06/10 01:04:12;;;;;;;9.20;8.20;;;;;;;18.99;70.93;99532.00;105732;1254;70753;-74
2023/06/10 01:06:55;;;;;;;9.40;8.60;;;;;;;18.96;71.24;99532.50;105610;1254;72681;-71
2023/06/10 01:09:40;;;;;;;10.30;9.30;;;;;;;18.92;71.30;99535.20;105757;1259;60766;-72
2023/06/10 01:12:10;;;;;;;12.10;8.90;;;;;;;18.89;71.23;99531.94;105712;1253;61040;-70
2023/06/10 01:14:38;;;;;;;10.50;9.40;;;;;;;18.85;71.09;99532.06;105980;1254;76187;-70
2023/06/10 01:17:06;;;;;;;10.50;8.90;;;;;;;18.83;70.82;99535.27;105449;1254;70078;-73
2023/06/10 01:19:36;;;;;;;11.90;8.00;;;;;;;18.81;70.93;99536.45;105806;1254;75238;-70
2023/06/10 01:22:04;;;;;;;10.70;8.10;;;;;;;18.88;70.76;99537.57;105590;1253;322765;-70
2023/06/10 01:26:50;;;;;;;9.70;8.60;;;;;;;18.98;70.33;99538.77;102484;1295;601049;-70
2023/06/10 01:29:21;;;;;;;9.70;8.70;;;;;;;18.93;70.40;99539.12;104963;1270;61314;-71
2023/06/10 01:31:49;;;;;;;11.60;9.10;;;;;;;18.92;70.35;99545.01;104637;1274;59273;-70
2023/06/10 01:34:17;;;;;;;14.00;9.20;;;;;;;18.91;70.53;99547.67;105009;1270;70894;-69
2023/06/10 01:36:47;;;;;;;10.50;9.50;;;;;;;18.88;70.40;99545.44;105067;1272;69454;-72
2023/06/10 01:39:16;;;;;;;9.60;8.70;;;;;;;18.84;70.14;99545.27;105227;1273;71594;-76
2023/06/10 01:41:44;;;;;;;12.30;9.40;;;;;;;18.80;70.05;99545.45;105062;1270;60157;-72
2023/06/10 01:44:12;;;;;;;10.20;9.10;;;;;;;18.75;69.81;99542.55;105271;1273;59290;-69
2023/06/10 01:46:40;;;;;;;11.30;9.40;;;;;;;18.71;69.72;99541.27;107294;1272;71244;-70
2023/06/10 01:49:07;;;;;;;12.70;9.90;;;;;;;18.68;69.79;99543.52;107462;1266;68953;-69
2023/06/10 01:51:36;;;;;;;11.70;8.80;;;;;;;18.67;69.77;99545.63;107775;1264;71471;-73
2023/06/10 01:54:05;;;;;;;10.40;9.20;;;;;;;18.75;69.66;99545.36;107974;1269;60500;-70
2023/06/10 01:56:33;;;;;;;11.60;8.40;;;;;;;18.82;69.56;99545.31;107889;1266;58868;-72
2023/06/10 01:59:00;;;;;;;10.10;9.10;;;;;;;18.82;69.56;99542.58;107614;1267;71529;-69
2023/06/10 02:01:28;;;;;;;12.80;8.90;;;;;;;18.83;69.54;99544.05;107373;1265;69186;-71
2023/06/10 02:03:56;;;;;;;10.70;9.60;;;;;;;18.84;69.39;99547.96;107919;1269;71250;-68
2023/06/10 02:06:24;;;;;;;9.90;8.90;;;;;;;18.84;69.42;99542.46;108175;1263;59253;-69
2023/06/10 02:08:53;;;;;;;10.50;9.00;;;;;;;18.86;69.40;99546.08;108314;1257;59486;-71
2023/06/10 02:11:21;;;;;;;10.60;9.50;;;;;;;18.86;69.32;99547.15;108331;1257;71886;-72
2023/06/10 02:13:49;;;;;;;10.40;9.20;;;;;;;18.84;69.32;99545.80;108899;1253;69170;-69
2023/06/10 02:16:16;;;;;;;10.50;9.00;;;;;;;18.84;69.29;99547.89;108560;1254;70408;-69
2023/06/10 02:18:44;;;;;;;10.80;9.00;;;;;;;18.83;68.98;99547.23;108285;1254;59026;-72
2023/06/10 02:21:12;;;;;;;9.40;8.50;;;;;;;18.83;68.85;99550.67;107811;1254;61018;-71
2023/06/10 02:23:40;;;;;;;9.50;8.60;;;;;;;18.84;68.74;99544.70;108354;1254;71791;-71
2023/06/10 02:26:08;;;;;;;10.90;8.10;;;;;;;18.85;68.78;99548.95;108199;1254;68859;-71
2023/06/10 02:28:36;;;;;;;9.80;8.30;;;;;;;18.94;68.80;99549.58;107915;1253;73437;-71
2023/06/10 02:31:03;;;;;;;10.80;8.50;;;;;;;19.01;69.03;99552.19;107870;1255;59792;-71
2023/06/10 02:33:31;;;;;;;12.40;8.30;;;;;;;19.00;69.49;99558.08;106272;1257;59608;-70
2023/06/10 02:35:59;;;;;;;9.50;8.50;;;;;;;18.96;69.75;99559.04;106014;1255;71794;-72
2023/06/10 02:38:27;;;;;;;11.50;8.30;;;;;;;18.89;69.81;99562.36;105634;1260;69230;-72
2023/06/10 02:40:54;;;;;;;10.10;8.50;;;;;;;18.81;69.94;99562.42;105552;1261;71462;-71
2023/06/10 02:43:22;;;;;;;11.10;9.50;;;;;;;18.76;70.05;99561.85;105460;1254;59676;-72
2023/06/10 02:45:51;;;;;;;11.50;9.80;;;;;;;18.70;70.06;99559.55;105949;1254;59667;-71
2023/06/10 02:48:19;;;;;;;11.30;9.40;;;;;;;18.68;70.00;99561.42;105612;1255;73086;-73
2023/06/10 02:50:46;;;;;;;10.70;9.40;;;;;;;18.64;70.09;99560.87;105612;1260;69224;-73
2023/06/10 02:53:22;;;;;;;13.30;8.20;;;;;;;18.60;70.34;99562.10;105692;1257;73272;-70
2023/06/10 02:55:54;;;;;;;9.50;8.50;;;;;;;18.65;70.42;99562.62;105695;1254;60879;-69
2023/06/10 02:58:22;;;;;;;12.60;8.80;;;;;;;18.68;70.67;99568.48;105729;1260;59826;-70
2023/06/10 03:00:50;;;;;;;11.70;9.10;;;;;;;18.64;70.88;99579.15;105781;1255;71635;-70
2023/06/10 03:03:18;;;;;;;14.70;10.50;;;;;;;18.61;70.90;99581.55;105387;1260;70607;-72
2023/06/10 03:05:53;;;;;;;14.40;11.00;;;;;;;18.60;70.91;99581.27;105589;1257;71050;-75
2023/06/10 03:08:22;;;;;;;12.10;9.80;;;;;;;18.60;70.84;99581.85;105792;1254;59911;-72
2023/06/10 03:10:50;;;;;;;11.10;9.80;;;;;;;18.60;70.72;99584.37;105869;1259;59652;-71
2023/06/10 03:13:18;;;;;;;11.00;9.60;;;;;;;18.59;70.66;99588.92;105868;1258;73193;-71
2023/06/10 03:15:46;;;;;;;10.90;9.80;;;;;;;18.57;70.53;99585.44;105872;1257;70143;-71
2023/06/10 03:18:16;;;;;;;10.80;9.60;;;;;;;18.56;70.40;99583.85;105745;1257;71280;-72
2023/06/10 03:20:44;;;;;;;19.30;9.10;;;;;;;18.64;70.04;99582.35;105567;1255;60256;-72
2023/06/10 03:23:15;;;;;;;10.40;9.20;;;;;;;18.72;69.66;99583.59;105869;1254;59576;-73
2023/06/10 03:25:43;;;;;;;10.50;9.40;;;;;;;18.72;69.45;99585.91;105549;1254;73196;-72
2023/06/10 03:28:13;;;;;;;12.30;9.70;;;;;;;18.71;69.19;99582.98;105128;1263;70056;-73
2023/06/10 03:30:41;;;;;;;16.00;9.30;;;;;;;18.72;69.14;99582.63;105556;1258;71317;-71
2023/06/10 03:33:09;;;;;;;11.50;9.60;;;;;;;18.73;69.04;99584.97;105796;1260;59657;-69
2023/06/10 03:35:37;;;;;;;12.10;8.90;;;;;;;18.73;68.94;99590.82;105699;1259;59603;-73
2023/06/10 03:38:05;;;;;;;10.90;9.70;;;;;;;18.73;68.94;99591.14;105861;1254;70865;-72
2023/06/10 03:40:33;;;;;;;12.50;9.80;;;;;;;18.74;68.89;99592.63;105279;1260;69044;-72
2023/06/10 03:43:00;;;;;;;11.40;10.10;;;;;;;18.75;68.76;99591.64;105606;1260;71671;-70
2023/06/10 03:45:28;;;;;;;13.60;9.50;;;;;;;18.75;68.81;99590.41;105890;1257;62048;-72
2023/06/10 03:47:56;;;;;;;10.00;8.70;;;;;;;18.79;68.86;99592.23;105647;1254;59555;-71
2023/06/10 03:50:27;;;;;;;11.30;9.50;;;;;;;18.81;68.71;99588.50;105726;1254;71991;-70
2023/06/10 03:52:54;;;;;;;10.20;8.10;;;;;;;18.88;68.71;99593.22;105531;1263;68824;-69
2023/06/10 03:55:24;;;;;;;10.30;8.50;;;;;;;19.03;68.61;99591.66;105507;1254;71641;-68
2023/06/10 03:57:52;;;;;;;11.20;9.10;;;;;;;19.18;68.42;99589.98;105333;1254;59704;-70
2023/06/10 04:00:21;;;;;;;9.90;8.80;;;;;;;19.27;68.26;99591.70;105473;1254;59701;-72
2023/06/10 04:02:51;;;;;;;10.90;8.40;;;;;;;19.33;67.82;99591.00;105825;1254;72958;-71
2023/06/10 04:05:28;;;;;;;13.20;9.00;;;;;;;19.40;67.42;99591.66;105606;1258;68769;-71
2023/06/10 04:07:57;;;;;;;10.50;8.60;;;;;;;19.47;67.18;99591.27;105260;1257;71141;-69
2023/06/10 04:10:25;;;;;;;13.30;8.10;;;;;;;19.55;66.64;99586.92;105395;1260;59610;-70
2023/06/10 04:12:53;;;;;;;8.70;7.80;;;;;;;19.61;66.18;99583.54;105746;1254;59589;-68
2023/06/10 04:15:23;;;;;;;8.30;7.60;;;;;;;19.68;65.77;99582.95;105654;1259;73101;-72
2023/06/10 04:17:50;;;;;;;9.40;7.70;;;;;;;19.75;65.34;99579.96;105464;1254;70346;-69
2023/06/10 04:20:19;;;;;;;9.70;7.50;;;;;;;19.81;65.14;99581.68;105556;1260;73008;-70
2023/06/10 04:22:47;;;;;;;10.20;7.40;;;;;;;19.87;65.05;99582.30;105560;1260;60919;-71
2023/06/10 04:25:17;;;;;;;10.50;8.60;;;;;;;19.91;65.01;99580.11;105343;1260;61117;-71
2023/06/10 04:27:45;;;;;;;10.30;7.70;;;;;;;19.94;64.76;99580.52;105647;1259;73289;-71
2023/06/10 04:30:13;;;;;;;9.00;8.10;;;;;;;19.96;64.71;99581.65;105396;1259;69178;-71
2023/06/10 04:32:41;;;;;;;15.80;8.30;;;;;;;19.99;64.76;99583.49;105313;1254;73180;-69
2023/06/10 04:35:13;;;;;;;10.90;8.30;;;;;;;20.04;64.96;99582.50;105835;1257;60055;-68
2023/06/10 04:37:42;;;;;;;8.30;7.60;;;;;;;20.11;64.87;99582.54;105754;1254;59560;-69
2023/06/10 04:40:10;;;;;;;9.40;7.90;;;;;;;20.21;64.57;99583.20;105750;1256;75001;-69
2023/06/10 04:42:38;;;;;;;8.10;7.30;;;;;;;20.30;64.37;99582.87;105449;1254;67773;-67
2023/06/10 04:45:06;;;;;;;9.30;8.20;;;;;;;20.39;64.10;99583.16;105467;1254;71518;-69
2023/06/10 04:47:34;;;;;;;9.70;7.70;;;;;;;20.48;63.87;99582.16;105517;1256;59609;-71
2023/06/10 04:50:02;;;;;;;10.90;7.50;;;;;;;20.55;63.56;99582.11;105615;1254;59706;-70
2023/06/10 04:52:31;;;;;;;9.10;7.60;;;;;;;20.60;63.58;99582.99;105527;1254;71876;-70
2023/06/10 04:54:59;;;;;;;10.20;8.30;;;;;;;20.60;63.21;99578.09;105471;1254;70024;-71
2023/06/10 04:57:26;;;;;;;8.00;7.20;;;;;;;20.58;63.25;99576.51;105505;1257;70471;-71
2023/06/10 04:59:54;;;;;;;9.40;8.50;;;;;;;20.59;63.18;99580.05;105500;1254;60131;-69
2023/06/10 05:02:22;;;;;;;8.60;7.80;;;;;;;20.60;63.23;99579.16;105601;1254;60254;-70
2023/06/10 05:04:50;;;;;;;8.80;7.80;;;;;;;20.64;63.07;99577.45;105815;1258;73034;-72
2023/06/10 05:07:17;;;;;;;8.10;7.40;;;;;;;20.66;62.88;99578.31;105761;1260;70019;-71
2023/06/10 05:09:45;;;;;;;9.00;8.20;;;;;;;20.70;62.90;99575.59;105363;1254;71259;-71
2023/06/10 05:12:13;;;;;;;9.90;8.70;;;;;;;20.76;62.83;99576.20;105865;1257;59964;-68
2023/06/10 05:14:41;;;;;;;8.20;7.40;;;;;;;20.83;62.77;99579.38;105481;1259;59784;-70
2023/06/10 05:17:08;;;;;;;10.10;7.90;;;;;;;20.90;62.82;99578.04;105572;1257;73048;-70
2023/06/10 05:19:37;;;;;;;8.10;7.30;;;;;;;20.97;62.81;99580.07;105383;1254;70863;-69
2023/06/10 05:22:05;;;;;;;9.30;8.40;;;;;;;21.08;62.82;99579.08;105358;1259;70405;-70
2023/06/10 05:24:32;;;;;;;11.50;7.60;;;;;;;21.18;62.59;99579.06;105782;1253;59926;-70
2023/06/10 05:27:00;;;;;;;10.60;7.20;;;;;;;21.28;62.43;99577.73;105813;1257;59605;-72
2023/06/10 05:29:29;;;;;;;7.90;7.20;;;;;;;21.38;62.26;99579.39;105274;1254;75019;-71
2023/06/10 05:32:00;;;;;;;11.20;7.30;;;;;;;21.47;61.84;99575.38;105470;1260;70095;-71
2023/06/10 05:34:27;;;;;;;8.40;7.50;;;;;;;21.55;61.54;99579.20;105794;1254;72721;-73
2023/06/10 05:36:55;;;;;;;13.10;7.50;;;;;;;21.62;61.24;99579.33;105804;1257;60565;-74
2023/06/10 05:39:22;;;;;;;9.70;8.30;;;;;;;21.68;61.05;99578.89;105861;1257;60405;-72
2023/06/10 05:41:50;;;;;;;10.20;7.40;;;;;;;21.73;61.15;99579.67;105968;1254;72596;-72
2023/06/10 05:44:18;;;;;;;10.40;7.20;;;;;;;21.78;61.18;99584.14;105585;1255;70012;-71
2023/06/10 05:46:45;;;;;;;10.70;7.70;;;;;;;21.86;61.27;99587.45;105785;1259;74823;-70
2023/06/10 05:49:12;;;;;;;8.00;7.10;;;;;;;21.94;61.08;99587.86;105733;1254;60535;-72
2023/06/10 05:51:40;;;;;;;9.00;7.90;;;;;;;22.02;60.95;99583.80;105933;1254;60979;-70
2023/06/10 05:54:07;;;;;;;11.70;7.80;;;;;;;22.09;60.89;99585.43;105840;1254;73863;-73
2023/06/10 05:56:35;;;;;;;9.90;8.20;;;;;;;22.19;60.63;99584.05;105988;1257;69408;-71
2023/06/10 05:59:02;;;;;;;8.00;7.00;;;;;;;22.28;60.33;99582.58;105868;1254;72796;-70
2023/06/10 06:01:30;;;;;;;10.30;7.70;;;;;;;22.38;60.21;99583.42;105614;1262;60869;-70
2023/06/10 06:03:58;;;;;;;10.00;7.50;;;;;;;22.48;60.08;99588.27;105636;1256;60523;-71
2023/06/10 06:06:25;;;;;;;8.20;7.40;;;;;;;22.55;59.98;99586.80;105913;1254;73878;-72
2023/06/10 06:08:53;;;;;;;8.30;7.30;;;;;;;22.63;59.83;99591.77;106018;1256;68879;-71
2023/06/10 06:11:20;;;;;;;8.70;7.50;;;;;;;22.69;59.78;99591.27;105611;1254;72731;-72
2023/06/10 06:13:48;;;;;;;8.00;6.80;;;;;;;22.75;59.63;99592.14;105453;1253;60472;-71
2023/06/10 06:16:19;;;;;;;9.50;7.60;;;;;;;22.82;59.63;99592.61;105827;1256;60392;-70
2023/06/10 06:18:47;;;;;;;7.60;6.90;;;;;;;22.89;59.77;99591.23;105435;1259;73897;-67
2023/06/10 06:21:14;;;;;;;7.50;6.80;;;;;;;22.92;59.57;99590.13;105500;1254;69167;-71
2023/06/10 06:23:42;;;;;;;8.20;7.40;;;;;;;22.93;59.69;99586.61;105407;1254;71142;-70
2023/06/10 06:26:09;;;;;;;8.00;7.00;;;;;;;22.95;59.86;99587.23;105563;1257;60408;-71
2023/06/10 06:28:37;;;;;;;9.70;6.70;;;;;;;22.98;60.05;99585.42;105513;1256;60482;-71
2023/06/10 06:31:04;;;;;;;7.10;6.50;;;;;;;23.06;60.48;99587.39;105383;1254;74961;-71
2023/06/10 06:33:32;;;;;;;7.90;7.10;;;;;;;23.18;60.55;99585.30;105446;1259;69009;-71
2023/06/10 06:36:00;;;;;;;7.60;6.90;;;;;;;23.25;60.30;99584.50;105922;1258;73419;-68
2023/06/10 06:38:27;;;;;;;7.60;6.90;;;;;;;23.29;60.10;99585.45;105509;1257;60809;-72
2023/06/10 06:40:55;;;;;;;7.20;6.60;;;;;;;23.31;59.73;99580.83;105843;1257;60332;-67
2023/06/10 06:43:22;;;;;;;6.70;6.10;;;;;;;23.37;59.57;99584.08;105359;1254;75741;-70
2023/06/10 06:45:58;;;;;;;11.80;6.40;;;;;;;23.43;59.50;99581.31;105662;1257;69400;-69
2023/06/10 06:48:26;;;;;;;9.10;5.90;;;;;;;23.47;58.99;99583.52;105383;1259;70555;-71
2023/06/10 06:50:56;;;;;;;11.20;6.80;;;;;;;23.49;58.61;99584.67;105891;1254;60450;-68
2023/06/10 06:53:23;;;;;;;7.50;6.70;;;;;;;23.51;58.49;99589.02;105523;1254;60443;-71
2023/06/10 06:55:51;;;;;;;7.90;6.40;;;;;;;23.55;58.57;99588.90;105798;1254;74087;-67
2023/06/10 06:58:19;;;;;;;7.20;5.70;;;;;;;23.59;58.43;99584.02;105130;1254;70653;-69
2023/06/10 07:00:46;;;;;;;6.50;5.90;;;;;;;23.66;58.09;99584.98;105409;1258;71441;-68
2023/06/10 07:03:14;;;;;;;9.30;6.20;;;;;;;23.76;57.86;99582.54;105237;1259;60479;-66
2023/06/10 07:05:41;;;;;;;8.50;5.60;;;;;;;23.83;57.79;99578.92;105478;1259;61822;-68
2023/06/10 07:08:09;;;;;;;7.70;6.50;;;;;;;23.91;57.64;99574.65;105309;1260;73835;-68
2023/06/10 07:10:36;;;;;;;6.90;6.10;;;;;;;24.00;57.51;99577.95;105553;1257;69381;-67
2023/06/10 07:13:04;;;;;;;7.60;6.10;;;;;;;24.07;57.50;99575.17;105543;1254;71394;-69
2023/06/10 07:15:32;;;;;;;8.50;6.30;;;;;;;24.14;57.63;99577.83;105532;1259;60520;-69
2023/06/10 07:18:00;;;;;;;6.80;6.10;;;;;;;24.24;57.91;99575.02;105732;1254;60523;-68
2023/06/10 07:20:27;;;;;;;6.90;6.10;;;;;;;24.35;58.00;99577.69;105455;1254;73773;-68
2023/06/10 07:22:54;;;;;;;9.90;7.10;;;;;;;24.49;57.93;99581.36;105592;1254;68702;-69
2023/06/10 07:25:22;;;;;;;10.00;7.30;;;;;;;24.62;57.70;99578.88;105631;1254;70826;-68
2023/06/10 07:27:49;;;;;;;8.90;7.50;;;;;;;24.72;57.60;99577.08;105443;1259;60530;-69
2023/06/10 07:30:17;;;;;;;8.10;7.40;;;;;;;24.79;57.66;99579.13;105553;1255;60498;-69
2023/06/10 07:32:45;;;;;;;11.20;7.50;;;;;;;24.90;57.73;99578.52;105501;1254;75046;-69
2023/06/10 07:35:13;;;;;;;8.10;7.40;;;;;;;25.04;57.60;99574.03;105514;1259;68690;-68
2023/06/10 07:37:41;;;;;;;11.40;7.30;;;;;;;25.18;57.37;99579.61;105850;1257;72522;-66
2023/06/10 07:40:09;;;;;;;7.90;6.90;;;;;;;25.31;57.08;99580.54;106266;1253;60532;-68
2023/06/10 07:42:36;;;;;;;9.20;7.10;;;;;;;25.47;56.95;99582.95;106468;1253;60390;-66
2023/06/10 07:45:05;;;;;;;8.10;7.20;;;;;;;25.57;56.26;99582.36;106040;1257;72840;-67
2023/06/10 07:47:33;;;;;;;10.50;6.40;;;;;;;25.63;56.21;99582.59;105885;1260;68678;-69
2023/06/10 07:50:01;;;;;;;6.90;6.20;;;;;;;25.71;55.98;99588.45;106046;1253;75040;-68
2023/06/10 07:52:28;;;;;;;7.80;6.30;;;;;;;25.74;55.54;99581.55;106336;1253;60522;-67
2023/06/10 07:54:56;;;;;;;7.10;6.40;;;;;;;25.73;55.37;99583.63;106461;1253;60610;-69
2023/06/10 07:57:23;;;;;;;7.30;6.40;;;;;;;25.68;55.42;99580.79;106216;1253;72919;-67
2023/06/10 07:59:51;;;;;;;7.10;6.10;;;;;;;25.67;55.33;99581.59;105949;1253;70127;-70
2023/06/10 08:02:18;;;;;;;7.20;6.20;;;;;;;25.68;55.51;99585.02;106186;1254;71618;-69
2023/06/10 08:04:46;;;;;;;7.40;6.20;;;;;;;25.75;55.56;99579.11;105978;1254;60562;-68
2023/06/10 08:07:13;;;;;;;6.90;6.20;;;;;;;25.80;55.68;99578.17;105916;1254;60502;-68
2023/06/10 08:09:41;;;;;;;6.30;5.70;;;;;;;25.87;55.46;99573.77;105669;1254;73947;-66
2023/06/10 08:12:08;;;;;;;7.50;5.70;;;;;;;25.97;55.27;99575.90;105434;1253;70065;-67
2023/06/10 08:14:38;;;;;;;9.70;6.60;;;;;;;26.03;55.07;99569.48;105471;1259;71380;-69
2023/06/10 08:17:06;;;;;;;7.70;7.00;;;;;;;26.03;54.89;99568.33;105312;1256;60421;-70
2023/06/10 08:19:34;;;;;;;8.10;7.20;;;;;;;25.99;55.05;99567.90;105643;1257;60483;-71
2023/06/10 08:22:01;;;;;;;7.00;6.40;;;;;;;25.90;55.04;99570.66;105698;1254;76160;-68
2023/06/10 08:24:29;;;;;;;6.90;6.20;;;;;;;25.82;55.27;99572.67;105368;1254;70156;-68
2023/06/10 08:26:57;;;;;;;7.10;5.60;;;;;;;25.72;55.48;99572.52;105435;1254;72999;-68
2023/06/10 08:29:25;;;;;;;6.40;5.80;;;;;;;25.61;55.60;99572.79;105650;1254;60537;-67
2023/06/10 08:31:52;;;;;;;9.80;6.30;;;;;;;25.45;55.81;99571.15;105587;1259;60354;-66
2023/06/10 08:34:20;;;;;;;6.00;5.40;;;;;;;25.33;56.10;99573.27;105512;1253;72992;-68
2023/06/10 08:36:51;;;;;;;6.00;5.40;;;;;;;25.30;56.21;99574.39;105559;1254;70038;-68
2023/06/10 08:39:19;;;;;;;8.90;5.60;;;;;;;25.28;56.33;99569.07;105191;1257;72655;-68
2023/06/10 08:42:18;;;;;;;6.70;5.30;;;;;;;25.30;56.30;99571.13;105441;1255;61139;-69
2023/06/10 08:44:46;;;;;;;8.80;5.70;;;;;;;25.37;56.17;99564.72;105415;1254;60511;-66
2023/06/10 08:47:16;;;;;;;6.60;5.90;;;;;;;25.43;55.70;99567.94;105546;1254;73905;-68
2023/06/10 08:49:45;;;;;;;6.70;5.50;;;;;;;25.55;55.43;99562.78;105514;1259;69244;-66
2023/06/10 08:52:17;;;;;;;6.70;5.30;;;;;;;25.76;55.51;99562.55;105534;1254;72916;-71
2023/06/10 08:54:59;;;;;;;8.70;5.10;;;;;;;26.06;55.17;99557.77;105649;1252;60513;-68
2023/06/10 08:57:27;;;;;;;7.10;5.50;;;;;;;26.33;54.43;99559.16;105539;1255;60315;-68
2023/06/10 08:59:56;;;;;;;7.00;5.00;;;;;;;26.56;54.08;99557.25;105523;1254;73777;-69
2023/06/10 09:02:24;;;;;;;6.50;5.40;;;;;;;26.81;53.63;99554.59;105652;1256;68956;-74
2023/06/10 09:05:07;;;;;;;6.60;5.40;;;;;;;27.05;53.42;99555.12;105705;1254;71308;-71
2023/06/10 09:07:37;;;;;;;5.80;5.30;;;;;;;27.20;52.98;99558.80;105779;1254;60441;-73
2023/06/10 09:10:13;;;;;;;6.60;6.00;;;;;;;27.34;52.61;99562.98;105734;1254;60535;-73
2023/06/10 09:12:46;;;;;;;6.50;5.30;;;;;;;27.43;52.59;99558.43;105611;1254;75239;-69
2023/06/10 09:15:17;;;;;;;7.30;5.60;;;;;;;27.64;52.08;99559.79;105472;1254;70726;-73
2023/06/10 09:17:51;;;;;;;6.40;4.80;;;;;;;27.94;51.50;99561.30;105614;1257;71446;-69
2023/06/10 09:20:32;;;;;;;5.60;5.10;;;;;;;28.33;50.76;99561.11;105659;1260;60668;-73
2023/06/10 09:23:03;;;;;;;6.70;4.90;;;;;;;28.78;49.61;99558.38;105599;1254;60510;-71
2023/06/10 09:25:36;;;;;;;7.20;5.30;;;;;;;29.19;48.74;99556.02;105839;1259;73827;-70
2023/06/10 09:28:12;;;;;;;7.00;4.60;;;;;;;29.60;48.11;99551.28;105870;1259;68754;-68
2023/06/10 09:30:41;;;;;;;7.40;5.20;;;;;;;29.92;47.65;99552.16;105407;1257;72339;-70
2023/06/10 09:33:12;;;;;;;8.30;5.20;;;;;;;30.21;46.88;99553.27;105470;1254;60837;-70
2023/06/10 09:35:46;;;;;;;;;;;;;;;30.42;46.72;99548.73;105495;1253;60749;-70
2023/06/10 09:38:22;;;;;;;7.00;5.90;;;;;;;30.49;45.96;99544.55;107078;1256;75772;-71
2023/06/10 09:40:52;;;;;;;6.10;4.80;;;;;;;30.61;45.52;99544.90;105582;1254;69273;-70
2023/06/10 09:43:21;;;;;;;5.10;4.60;;;;;;;30.86;45.28;99542.66;105461;1254;75236;-69
2023/06/10 09:45:54;;;;;;;8.50;5.30;;;;;;;31.19;44.90;99534.42;105649;1254;62020;-72
2023/06/10 09:48:23;;;;;;;6.10;5.40;;;;;;;31.47;44.35;99535.73;105702;1254;60508;-72
2023/06/10 09:50:53;;;;;;;5.90;5.30;;;;;;;31.58;43.99;99533.02;105551;1254;76361;-70
2023/06/10 09:53:27;;;;;;;5.30;4.80;;;;;;;31.66;43.69;99525.67;105588;1254;70475;-67
2023/06/10 09:55:56;;;;;;;7.60;5.00;;;;;;;31.88;43.76;99520.59;105516;1254;72507;-71
2023/06/10 09:58:39;;;;;;;5.70;5.20;;;;;;;32.31;43.10;99514.21;105430;1253;62155;-70
2023/06/10 10:01:10;;;;;;;5.60;4.90;;;;;;;32.78;42.00;99508.00;105577;1256;60451;-72
2023/06/10 10:03:52;;;;;;;7.50;5.30;;;;;;;33.25;41.39;99510.36;105342;1262;75787;-71
2023/06/10 10:06:21;;;;;;;5.10;4.60;;;;;;;33.86;40.80;99514.74;105670;1257;69477;-73
2023/06/10 10:08:51;;;;;;;6.00;4.40;;;;;;;34.39;39.78;99509.30;105470;1257;74471;-69
2023/06/10 10:11:25;;;;;;;10.10;4.90;;;;;;;34.89;38.82;99510.28;105455;1254;60628;-69
2023/06/10 10:13:55;;;;;;;6.50;5.00;;;;;;;35.37;37.57;99504.64;105385;1262;60578;-72
2023/06/10 10:16:47;;;;;;;6.80;4.70;;;;;;;35.80;36.68;99502.38;105711;1262;65030;-67
2023/06/10 10:19:31;;;;;;;6.60;4.40;;;;;;;36.29;36.26;99501.61;105438;1256;62788;-71
2023/06/10 10:22:10;;;;;;;5.40;4.40;;;;;;;36.68;35.81;99500.14;105489;1259;66302;-70
2023/06/10 10:24:46;;;;;;;6.70;4.70;;;;;;;36.99;35.21;99496.23;105333;1260;60521;-71
2023/06/10 10:27:25;;;;;;;7.70;4.20;;;;;;;37.42;34.87;99495.31;105459;1254;61282;-71
2023/06/10 10:29:55;;;;;;;5.80;3.90;;;;;;;37.69;34.23;99496.02;105648;1262;73118;-68
2023/06/10 10:33:25;;;;;;;5.90;4.50;;;;;;;38.02;34.00;99495.61;105385;1259;62236;-69
2023/06/10 10:35:55;;;;;;;6.20;4.50;;;;;;;38.52;33.39;99496.41;105158;1265;66472;-70
2023/06/10 10:38:24;;;;;;;6.90;4.80;;;;;;;38.85;32.60;99494.51;105058;1265;60420;-70
2023/06/10 10:40:52;;;;;;;5.10;4.60;;;;;;;39.02;31.79;99496.77;105294;1254;60536;-71
2023/06/10 10:43:21;;;;;;;4.80;4.40;;;;;;;38.83;31.59;99502.39;105336;1263;64980;-72
2023/06/10 10:46:14;;;;;;;6.10;4.30;;;;;;;38.42;31.83;99507.10;105430;1262;61560;-69
2023/06/10 10:48:44;;;;;;;6.20;4.60;;;;;;;38.01;32.10;99506.02;105653;1254;63462;-69
2023/06/10 10:51:13;;;;;;;4.90;4.40;;;;;;;37.95;32.13;99502.23;105724;1255;60401;-68
2023/06/10 10:53:44;;;;;;;4.90;4.00;;;;;;;38.02;31.88;99497.41;105421;1262;60413;-72
2023/06/10 10:56:15;;;;;;;5.70;4.80;;;;;;;37.81;32.31;99494.98;105442;1262;66761;-71
2023/06/10 10:59:07;;;;;;;5.20;4.40;;;;;;;37.41;33.10;99500.67;105593;1257;60732;-70
2023/06/10 11:01:46;;;;;;;5.80;5.10;;;;;;;36.87;33.53;99502.29;105441;1253;63048;-69
2023/06/10 11:04:15;;;;;;;5.60;4.60;;;;;;;36.40;34.01;99503.86;105406;1264;61104;-71
2023/06/10 11:06:54;;;;;;;5.00;4.50;;;;;;;36.14;34.31;99499.77;105992;1252;60466;-70
2023/06/10 11:09:28;;;;;;;5.10;4.60;;;;;;;35.83;34.66;99497.48;105505;1260;64990;-70
2023/06/10 11:11:57;;;;;;;5.90;5.20;;;;;;;35.51;34.96;99497.10;106002;1253;63510;-67
2023/06/10 11:14:31;;;;;;;5.40;4.90;;;;;;;35.29;35.00;99499.70;105710;1254;64235;-67
2023/06/10 11:17:01;;;;;;;5.30;4.70;;;;;;;35.12;35.48;99499.77;105867;1254;60447;-70
2023/06/10 11:19:37;;;;;;;4.60;3.80;;;;;;;35.04;35.79;99496.58;105834;1253;60639;-71
2023/06/10 11:22:09;;;;;;;5.00;4.50;;;;;;;34.99;35.88;99487.63;105869;1254;73703;-70
2023/06/10 11:24:38;;;;;;;5.10;4.70;;;;;;;34.83;36.07;99492.64;106014;1254;61384;-70
2023/06/10 11:27:20;;;;;;;5.10;4.70;;;;;;;34.67;36.23;99492.58;106330;1254;64518;-70
2023/06/10 11:30:02;;;;;;;;;;;;;;;34.41;36.36;99494.33;105930;1254;61163;-71
2023/06/10 11:32:33;;;;;;;5.10;4.60;;;;;;;34.14;36.76;99491.41;106398;1253;60896;-68
2023/06/10 11:35:06;;;;;;;6.40;4.40;;;;;;;34.05;37.27;99488.23;106275;1254;76267;-69
2023/06/10 11:37:35;;;;;;;4.70;4.30;;;;;;;34.24;37.16;99484.36;106716;1254;70619;-70